Terminal Aerodrome Forecast
Issued by NWS Portland, OR

Home | Current Version | Previous Version | Text Only | Print | Product List | Glossary On
Versions: 1 2 3 4 5 6 7 8 9 10 11 12 13 14 15 16 17 18 19 20 21 22 23 24 25 26 27 28 29 30 31 32 33 34 35 36 37 38 39 40 41 42 43 44 45 46 47 48 49 50
000
FTUS46 KPQR 042335 CCA
TAFTTD
TAF COR
KTTD 042335Z 0500/0524 25005KT P6SM SCT035 SCT050
      TEMPO 0500/0501 -SHRA BKN028 OVC040
     FM050600 VRB03KT P6SM SCT025 BKN050
     FM051400 20005KT P6SM -RASN SCT015 OVC025
     FM052100 23007KT P6SM -SHRA SCT015 BKN025=

USA.gov is the U.S. government's official web portal to all federal, state and local government web resources and services.